Time;durP1;ratioP1;P1;durP2;ratioP2;P2;SDS_P1;SDS_P2;PMS_P1;PMS_P2;Temp;Humidity;BMP_temperature;BMP_pressure;BME280_temperature;BME280_humidity;BME280_pressure;Samples;Min_cycle;Max_cycle;Signal;HPM_P1;HPM_P2
2020/12/09 08:17:46;;;;;;;20.23;8.27;;;2.20;99.90;;;;;;5013902;28;20221;-70
2020/12/09 08:20:14;;;;;;;27.07;8.07;;;2.20;99.90;;;;;;5016539;28;20213;-70
2020/12/09 08:22:51;;;;;;;18.70;7.13;;;2.30;99.90;;;;;;5016431;28;20576;-70
2020/12/09 08:25:17;;;;;;;19.23;8.50;;;2.30;99.90;;;;;;5015594;28;20213;-70
2020/12/09 08:27:45;;;;;;;21.60;7.80;;;2.40;99.90;;;;;;5015249;28;20205;-70
2020/12/09 08:30:16;;;;;;;19.80;8.23;;;2.40;99.90;;;;;;5015046;28;20220;-70
2020/12/09 08:33:14;;;;;;;17.90;7.67;;;2.30;99.90;;;;;;5015180;28;20222;-70
2020/12/09 08:35:52;;;;;;;18.43;7.80;;;2.20;99.90;;;;;;5015199;28;20288;-70
2020/12/09 08:38:26;;;;;;;20.50;7.07;;;2.30;99.90;;;;;;5015149;28;20205;-70
2020/12/09 08:40:52;;;;;;;23.13;8.30;;;2.30;99.90;;;;;;5015411;28;20213;-70
2020/12/09 08:43:19;;;;;;;16.53;6.60;;;2.40;99.90;;;;;;5015450;28;20226;-70
2020/12/09 08:45:46;;;;;;;16.87;6.83;;;2.50;99.90;;;;;;5014915;28;20667;-70
2020/12/09 08:48:13;;;;;;;17.83;7.60;;;2.50;99.90;;;;;;5014866;28;20206;-70
2020/12/09 08:50:39;;;;;;;17.30;6.40;;;2.60;99.90;;;;;;5015344;28;20237;-70
2020/12/09 08:53:06;;;;;;;17.03;5.80;;;2.60;99.90;;;;;;5015148;28;20236;-70
2020/12/09 08:55:32;;;;;;;17.47;6.80;;;2.40;99.90;;;;;;5015533;28;20241;-71
2020/12/09 08:57:58;;;;;;;13.97;6.63;;;2.30;99.90;;;;;;5012454;28;20209;-70
2020/12/09 09:00:24;;;;;;;14.20;6.23;;;2.30;99.90;;;;;;5013642;28;20209;-70
2020/12/09 09:02:50;;;;;;;17.47;6.50;;;2.30;99.90;;;;;;5014340;28;20230;-70
2020/12/09 09:05:17;;;;;;;19.60;7.77;;;2.20;99.90;;;;;;5013458;28;20198;-70
2020/12/09 09:07:44;;;;;;;14.27;6.97;;;2.50;99.90;;;;;;5014648;28;20198;-70
2020/12/09 09:10:10;;;;;;;16.47;6.53;;;2.50;99.90;;;;;;5015348;28;20209;-71
2020/12/09 09:12:36;;;;;;;17.33;6.77;;;2.50;99.90;;;;;;5015056;28;20206;-71
2020/12/09 09:15:03;;;;;;;14.00;6.40;;;2.50;99.90;;;;;;5015111;28;20232;-70
2020/12/09 09:17:29;;;;;;;16.17;7.57;;;2.40;99.90;;;;;;5014632;28;20209;-72
2020/12/09 09:19:57;;;;;;;15.23;6.77;;;2.50;99.90;;;;;;5014977;28;20619;-70
2020/12/09 09:22:24;;;;;;;14.63;6.27;;;2.60;99.90;;;;;;5014372;28;20213;-70
2020/12/09 09:24:51;;;;;;;14.07;6.03;;;2.70;99.90;;;;;;5014936;28;20293;-70
2020/12/09 09:27:20;;;;;;;15.33;6.50;;;2.70;99.90;;;;;;5014848;28;20659;-70
2020/12/09 09:29:46;;;;;;;15.47;7.10;;;2.80;99.90;;;;;;5014838;28;20212;-70
2020/12/09 09:32:13;;;;;;;20.27;6.20;;;2.80;99.90;;;;;;5014423;28;20228;-70
2020/12/09 09:34:39;;;;;;;14.77;6.03;;;2.80;99.90;;;;;;5014581;28;20587;-70
2020/12/09 09:37:06;;;;;;;15.00;5.60;;;2.90;99.90;;;;;;5014390;28;20230;-70
2020/12/09 09:39:34;;;;;;;14.87;6.17;;;2.90;99.90;;;;;;5015060;28;20296;-70
2020/12/09 09:42:00;;;;;;;16.73;6.63;;;3.00;99.90;;;;;;5014851;28;20296;-70
2020/12/09 09:44:27;;;;;;;17.13;6.47;;;2.90;99.90;;;;;;5014662;28;20225;-71
2020/12/09 09:46:57;;;;;;;15.27;6.13;;;3.00;99.90;;;;;;5014512;28;20213;-70
2020/12/09 09:49:23;;;;;;;14.60;6.30;;;2.90;99.90;;;;;;5014130;28;20214;-70
2020/12/09 09:51:51;;;;;;;14.20;5.30;;;2.80;99.90;;;;;;5014330;28;20208;-71
2020/12/09 09:54:17;;;;;;;18.10;4.87;;;2.80;99.90;;;;;;5013746;28;20645;-70
2020/12/09 09:56:45;;;;;;;14.53;6.00;;;2.90;99.90;;;;;;5013872;28;20696;-69
2020/12/09 09:59:11;;;;;;;12.37;5.63;;;2.90;99.90;;;;;;5014027;28;20232;-70
2020/12/09 10:01:37;;;;;;;16.53;5.87;;;3.10;99.90;;;;;;5014189;28;20213;-70
2020/12/09 10:04:06;;;;;;;17.60;5.80;;;3.10;99.90;;;;;;5013790;28;20248;-70
2020/12/09 10:06:32;;;;;;;12.50;4.23;;;3.10;99.90;;;;;;5013975;28;20213;-71
2020/12/09 10:08:59;;;;;;;12.17;4.50;;;3.20;99.90;;;;;;5014035;28;20212;-70
2020/12/09 10:11:25;;;;;;;12.30;4.87;;;3.10;99.90;;;;;;5013788;28;20213;-70
2020/12/09 10:13:52;;;;;;;12.43;4.40;;;3.20;99.90;;;;;;5013519;28;20225;-70
2020/12/09 10:16:23;;;;;;;9.97;3.70;;;3.40;99.90;;;;;;5013755;28;20576;-70
2020/12/09 10:18:49;;;;;;;13.00;5.27;;;3.60;99.90;;;;;;5013681;28;20212;-70
2020/12/09 10:21:22;;;;;;;12.57;5.07;;;3.70;99.90;;;;;;5014198;28;20225;-71
2020/12/09 10:23:48;;;;;;;12.83;4.83;;;3.90;99.90;;;;;;5014048;28;20237;-71
2020/12/09 10:26:14;;;;;;;8.90;3.63;;;4.00;99.90;;;;;;5013645;28;20205;-70
2020/12/09 10:28:40;;;;;;;8.43;2.90;;;4.00;99.90;;;;;;5013745;28;20217;-70
2020/12/09 10:31:07;;;;;;;9.27;4.03;;;3.70;99.90;;;;;;5013575;28;20217;-71
2020/12/09 10:33:34;;;;;;;6.10;3.07;;;3.60;99.90;;;;;;5013483;28;20226;-70
2020/12/09 10:36:00;;;;;;;9.23;4.13;;;3.80;99.90;;;;;;5013648;28;20237;-70
2020/12/09 10:38:26;;;;;;;15.00;4.10;;;3.90;99.90;;;;;;5013395;28;20210;-71
2020/12/09 10:40:52;;;;;;;7.13;3.63;;;4.00;99.90;;;;;;5013489;28;20586;-71
2020/12/09 10:43:19;;;;;;;7.90;3.57;;;4.00;99.90;;;;;;5013108;28;20225;-70
2020/12/09 10:45:45;;;;;;;9.33;3.97;;;3.90;99.90;;;;;;5012975;28;20679;-72
2020/12/09 10:48:12;;;;;;;9.97;3.47;;;3.80;99.90;;;;;;5013044;28;20205;-71
2020/12/09 10:50:39;;;;;;;9.27;4.00;;;3.90;99.90;;;;;;5012899;28;20201;-72
2020/12/09 10:53:05;;;;;;;7.07;3.40;;;4.10;99.90;;;;;;5012508;28;20546;-72
2020/12/09 10:55:31;;;;;;;7.10;2.67;;;4.30;99.90;;;;;;5012688;28;20715;-70
2020/12/09 10:57:57;;;;;;;10.50;3.40;;;4.40;99.90;;;;;;5013181;28;20213;-70
2020/12/09 11:00:24;;;;;;;8.30;3.23;;;4.30;99.90;;;;;;5012745;28;20209;-72
2020/12/09 11:02:50;;;;;;;7.77;2.80;;;4.30;99.90;;;;;;5012439;28;20696;-72
2020/12/09 11:05:17;;;;;;;6.43;2.80;;;4.30;99.90;;;;;;5012938;28;20697;-72
2020/12/09 11:07:43;;;;;;;5.97;2.80;;;4.40;99.90;;;;;;5013218;28;20205;-72
2020/12/09 11:10:09;;;;;;;10.10;3.43;;;4.40;99.90;;;;;;5013137;28;20212;-71
2020/12/09 11:12:35;;;;;;;8.87;3.50;;;4.40;99.90;;;;;;5012937;28;20221;-71
2020/12/09 11:15:02;;;;;;;11.57;3.20;;;4.50;99.90;;;;;;5012934;28;20542;-71
2020/12/09 11:17:28;;;;;;;5.03;2.30;;;4.40;99.90;;;;;;5012579;28;20268;-72
2020/12/09 11:19:54;;;;;;;6.50;2.67;;;4.50;99.90;;;;;;5012307;28;20202;-72
2020/12/09 11:22:21;;;;;;;6.30;3.03;;;4.60;99.90;;;;;;5012181;28;20216;-72
2020/12/09 11:24:48;;;;;;;6.03;2.70;;;4.60;99.90;;;;;;5012769;28;20206;-72
2020/12/09 11:27:14;;;;;;;5.13;2.60;;;4.60;99.90;;;;;;5012679;28;20241;-72
2020/12/09 11:29:40;;;;;;;6.10;2.27;;;4.60;99.90;;;;;;5012843;28;20202;-72
2020/12/09 11:32:07;;;;;;;4.77;2.20;;;4.70;99.90;;;;;;5012230;28;20671;-71
2020/12/09 11:34:33;;;;;;;4.90;2.30;;;4.70;99.90;;;;;;5012800;28;20230;-71
2020/12/09 11:37:00;;;;;;;6.60;2.70;;;4.70;99.90;;;;;;5012499;28;20233;-72
2020/12/09 11:39:27;;;;;;;6.20;2.80;;;4.70;99.90;;;;;;5012406;28;20202;-71
2020/12/09 11:41:57;;;;;;;5.87;2.33;;;4.70;99.90;;;;;;5012334;28;20217;-72
2020/12/09 11:44:23;;;;;;;5.87;2.43;;;4.90;99.90;;;;;;5012566;28;20790;-71
2020/12/09 11:46:50;;;;;;;5.57;2.63;;;5.00;99.90;;;;;;5012674;28;20205;-71
2020/12/09 11:49:16;;;;;;;5.90;2.80;;;5.10;99.90;;;;;;5012459;28;20216;-69
2020/12/09 11:51:42;;;;;;;4.80;1.90;;;5.00;99.90;;;;;;5012175;28;20233;-70
2020/12/09 11:54:09;;;;;;;7.70;2.63;;;5.10;99.90;;;;;;5012112;28;20225;-70
2020/12/09 11:56:36;;;;;;;4.07;2.30;;;5.10;99.90;;;;;;5012427;28;20225;-70
2020/12/09 11:59:02;;;;;;;4.70;2.23;;;5.00;99.90;;;;;;5012469;28;20213;-70
2020/12/09 12:01:28;;;;;;;8.60;2.67;;;5.10;99.90;;;;;;5012206;28;20664;-70
2020/12/09 12:03:54;;;;;;;7.27;2.60;;;5.10;99.90;;;;;;5012199;28;20225;-69
2020/12/09 12:06:22;;;;;;;6.40;2.33;;;5.10;99.90;;;;;;5012387;28;20213;-70
2020/12/09 12:08:50;;;;;;;4.17;2.07;;;5.10;99.90;;;;;;5003439;28;20220;-70
2020/12/09 12:11:17;;;;;;;5.67;2.23;;;4.90;99.90;;;;;;4997677;28;20711;-70
2020/12/09 12:13:44;;;;;;;6.07;2.23;;;5.00;99.90;;;;;;5001498;28;20234;-69
2020/12/09 12:16:17;;;;;;;5.60;2.70;;;5.10;99.90;;;;;;5004002;28;20237;-70
2020/12/09 12:18:45;;;;;;;7.17;2.27;;;5.10;99.90;;;;;;4998593;28;20282;-70
2020/12/09 12:21:12;;;;;;;6.20;2.60;;;4.90;99.90;;;;;;4995171;28;20202;-70
2020/12/09 12:23:39;;;;;;;4.90;2.03;;;4.90;99.90;;;;;;5001241;28;20222;-71
2020/12/09 12:26:06;;;;;;;7.20;2.47;;;5.00;99.90;;;;;;5002839;28;20214;-70
2020/12/09 12:28:32;;;;;;;4.70;2.50;;;5.10;99.90;;;;;;5002901;28;20206;-70
2020/12/09 12:30:59;;;;;;;6.77;2.73;;;5.20;99.90;;;;;;4998035;28;20572;-70
2020/12/09 12:33:26;;;;;;;3.70;1.90;;;5.40;99.90;;;;;;5004865;28;20229;-71
2020/12/09 12:35:52;;;;;;;5.83;2.70;;;5.40;99.90;;;;;;5003833;28;20229;-70
2020/12/09 12:38:18;;;;;;;6.03;2.40;;;5.30;99.90;;;;;;5004939;28;20206;-70
2020/12/09 12:40:45;;;;;;;6.77;2.53;;;5.30;99.90;;;;;;4995982;28;20213;-70
2020/12/09 12:43:11;;;;;;;5.87;2.33;;;5.50;99.90;;;;;;4995176;28;20230;-70
2020/12/09 12:45:37;;;;;;;7.57;3.60;;;5.50;99.90;;;;;;4995925;28;20668;-69
2020/12/09 12:48:04;;;;;;;7.67;3.27;;;5.50;99.90;;;;;;4995634;28;20213;-70
2020/12/09 12:50:30;;;;;;;6.97;2.87;;;5.60;99.90;;;;;;4996197;28;20218;-70
2020/12/09 12:52:57;;;;;;;3.73;1.77;;;5.50;99.90;;;;;;4995945;28;20640;-69
2020/12/09 12:55:23;;;;;;;4.60;2.03;;;5.60;99.90;;;;;;4995861;28;20561;-69
2020/12/09 12:57:49;;;;;;;10.23;2.77;;;5.60;99.90;;;;;;4995884;28;20203;-70
2020/12/09 13:00:15;;;;;;;5.87;2.27;;;5.40;99.90;;;;;;5001230;28;20198;-70
2020/12/09 13:02:41;;;;;;;6.53;2.20;;;5.30;99.90;;;;;;5014622;28;20201;-70
2020/12/09 13:05:08;;;;;;;5.40;2.50;;;5.30;99.90;;;;;;5014562;28;20615;-70
2020/12/09 13:07:36;;;;;;;6.27;2.70;;;5.30;99.90;;;;;;5014758;28;20220;-70
2020/12/09 13:10:03;;;;;;;4.87;2.33;;;5.30;99.90;;;;;;5015455;28;20303;-70
2020/12/09 13:12:29;;;;;;;6.37;2.23;;;5.20;99.90;;;;;;5014792;28;20661;-70
2020/12/09 13:14:56;;;;;;;6.57;2.47;;;5.20;99.90;;;;;;5014873;28;20247;-71
2020/12/09 13:17:22;;;;;;;11.37;2.83;;;5.30;99.90;;;;;;5014925;28;20233;-71
2020/12/09 13:19:48;;;;;;;6.93;2.63;;;5.40;99.90;;;;;;5014491;28;20205;-71
2020/12/09 13:22:15;;;;;;;4.43;2.70;;;5.50;99.90;;;;;;5015088;28;20229;-72
2020/12/09 13:24:42;;;;;;;4.40;2.27;;;5.60;99.90;;;;;;5014617;28;20864;-71
2020/12/09 13:27:08;;;;;;;8.47;2.90;;;5.60;99.90;;;;;;5014638;28;20568;-71
2020/12/09 13:29:34;;;;;;;5.70;2.70;;;5.60;99.90;;;;;;5014509;28;20557;-70
2020/12/09 13:32:01;;;;;;;7.93;2.07;;;5.50;99.90;;;;;;5014330;28;20206;-70
2020/12/09 13:34:27;;;;;;;5.03;2.67;;;5.40;99.90;;;;;;5014397;28;20229;-69
2020/12/09 13:36:53;;;;;;;8.50;2.73;;;5.40;99.90;;;;;;5014865;28;20241;-70
2020/12/09 13:39:21;;;;;;;9.87;2.60;;;5.50;99.90;;;;;;5014685;28;20225;-69
2020/12/09 13:41:47;;;;;;;4.77;2.43;;;5.50;99.90;;;;;;5014392;28;20210;-70
2020/12/09 13:44:14;;;;;;;5.93;2.27;;;5.40;99.90;;;;;;5013821;28;20230;-70
2020/12/09 13:46:40;;;;;;;7.13;2.70;;;5.40;99.90;;;;;;5014017;28;20546;-70
2020/12/09 13:49:06;;;;;;;8.00;3.23;;;5.30;99.90;;;;;;5012405;28;20202;-70
2020/12/09 13:51:33;;;;;;;4.20;2.03;;;5.30;99.90;;;;;;5014295;28;20232;-70
2020/12/09 13:53:59;;;;;;;6.83;2.53;;;5.40;99.90;;;;;;5013629;28;20230;-71
2020/12/09 13:56:27;;;;;;;6.47;2.00;;;5.30;99.90;;;;;;5013048;28;20233;-70
2020/12/09 13:58:54;;;;;;;6.27;2.77;;;5.30;99.90;;;;;;5011649;28;20205;-69
2020/12/09 14:01:20;;;;;;;8.07;2.80;;;5.30;99.90;;;;;;5012919;28;20205;-70
2020/12/09 14:03:46;;;;;;;6.20;2.57;;;5.50;99.90;;;;;;5013328;28;20261;-69
2020/12/09 14:06:18;;;;;;;7.57;2.03;;;5.40;99.90;;;;;;5013309;28;20564;-69
2020/12/09 14:08:45;;;;;;;6.47;2.50;;;5.50;99.90;;;;;;5014052;28;20208;-69
2020/12/09 14:11:11;;;;;;;4.03;2.40;;;5.40;99.90;;;;;;5013891;28;20205;-70
2020/12/09 14:13:38;;;;;;;8.83;2.40;;;5.50;99.90;;;;;;5014172;28;20229;-69
2020/12/09 14:16:04;;;;;;;3.90;1.83;;;5.60;99.90;;;;;;5014278;28;20716;-69
2020/12/09 14:18:32;;;;;;;8.20;2.30;;;5.70;99.90;;;;;;5014298;28;20205;-70
2020/12/09 14:20:58;;;;;;;6.07;2.17;;;5.80;99.90;;;;;;5014102;28;20206;-71
2020/12/09 14:23:24;;;;;;;5.00;2.10;;;5.80;99.90;;;;;;5014094;28;20226;-71
2020/12/09 14:25:50;;;;;;;4.47;2.30;;;5.80;99.90;;;;;;5013962;28;20212;-70
2020/12/09 14:28:17;;;;;;;7.30;2.47;;;5.80;99.90;;;;;;5014063;28;20205;-70
2020/12/09 14:30:44;;;;;;;4.83;2.33;;;5.60;99.90;;;;;;5013819;28;20259;-70
2020/12/09 14:33:10;;;;;;;6.57;2.83;;;5.60;99.90;;;;;;5013601;28;20748;-69
2020/12/09 14:35:36;;;;;;;4.90;2.03;;;5.70;99.90;;;;;;5013947;28;20202;-70
2020/12/09 14:38:02;;;;;;;5.07;2.13;;;5.70;99.90;;;;;;5013879;28;20206;-71
2020/12/09 14:40:28;;;;;;;3.97;1.87;;;5.60;99.90;;;;;;5013512;28;20287;-70
2020/12/09 14:42:55;;;;;;;4.10;1.83;;;5.60;99.90;;;;;;5013382;28;20233;-70
2020/12/09 14:45:21;;;;;;;5.80;2.20;;;5.70;99.90;;;;;;5013524;28;20577;-71
2020/12/09 14:47:48;;;;;;;6.13;2.23;;;5.70;99.90;;;;;;5013485;28;20219;-70
2020/12/09 14:50:15;;;;;;;7.97;2.07;;;5.60;99.90;;;;;;5013765;28;20217;-70
2020/12/09 14:52:42;;;;;;;7.00;2.50;;;5.70;99.90;;;;;;5013753;28;20206;-70
2020/12/09 14:55:08;;;;;;;3.47;1.90;;;5.80;99.90;;;;;;5013036;28;20206;-71
2020/12/09 14:57:34;;;;;;;4.03;1.77;;;5.70;99.90;;;;;;5013459;28;20287;-71
2020/12/09 15:00:00;;;;;;;4.73;2.30;;;5.60;99.90;;;;;;5013356;28;20201;-70
2020/12/09 15:02:29;;;;;;;5.27;2.77;;;5.60;99.90;;;;;;5013541;28;20209;-71
2020/12/09 15:04:56;;;;;;;5.87;2.73;;;5.50;99.90;;;;;;5013403;28;20210;-70
2020/12/09 15:07:22;;;;;;;5.80;2.03;;;5.60;99.90;;;;;;5013698;28;20568;-69
2020/12/09 15:09:48;;;;;;;5.83;2.33;;;5.60;99.90;;;;;;5013142;28;20212;-69
2020/12/09 15:12:14;;;;;;;5.83;2.37;;;5.60;99.90;;;;;;5013293;28;20201;-70
2020/12/09 15:14:40;;;;;;;4.33;2.03;;;5.50;99.90;;;;;;5013216;28;20592;-69
2020/12/09 15:17:07;;;;;;;4.43;1.97;;;5.50;99.90;;;;;;5012853;28;20234;-69
2020/12/09 15:19:33;;;;;;;4.23;1.87;;;5.50;99.90;;;;;;5012881;28;20661;-69
2020/12/09 15:22:01;;;;;;;6.80;2.30;;;5.50;99.90;;;;;;5013214;28;20206;-69
2020/12/09 15:24:27;;;;;;;5.80;2.23;;;5.40;99.90;;;;;;5013097;28;20237;-70
2020/12/09 15:26:54;;;;;;;4.73;2.47;;;5.20;99.90;;;;;;5012805;28;20246;-70
2020/12/09 15:29:20;;;;;;;4.97;2.40;;;5.30;99.90;;;;;;5013036;28;20205;-69
2020/12/09 15:31:46;;;;;;;5.83;2.50;;;5.30;99.90;;;;;;5013034;28;20209;-70
2020/12/09 15:34:13;;;;;;;8.07;3.00;;;5.30;99.90;;;;;;5012786;28;20276;-70
2020/12/09 15:36:39;;;;;;;7.13;2.60;;;5.40;99.90;;;;;;5012962;28;20241;-71
2020/12/09 15:39:07;;;;;;;4.57;2.27;;;5.40;99.90;;;;;;5012788;28;20205;-70
2020/12/09 15:41:34;;;;;;;7.77;3.07;;;5.40;99.90;;;;;;5012604;28;20205;-70
2020/12/09 15:44:01;;;;;;;5.53;2.57;;;5.40;99.90;;;;;;5013037;28;20229;-69
2020/12/09 15:46:27;;;;;;;9.90;2.63;;;5.50;99.90;;;;;;5012893;28;20213;-70
2020/12/09 15:48:53;;;;;;;5.30;2.80;;;5.50;99.90;;;;;;5012624;28;20683;-70
2020/12/09 15:51:20;;;;;;;5.63;2.57;;;5.50;99.90;;;;;;5012687;28;20213;-69
2020/12/09 15:53:46;;;;;;;7.63;3.07;;;5.50;99.90;;;;;;5012721;28;20244;-69
2020/12/09 15:56:14;;;;;;;7.40;3.37;;;5.40;99.90;;;;;;5012481;28;20233;-70
2020/12/09 15:58:41;;;;;;;9.43;2.30;;;5.40;99.90;;;;;;5012805;28;20213;-69
2020/12/09 16:01:07;;;;;;;7.10;2.77;;;5.40;99.90;;;;;;5012824;28;20576;-69
2020/12/09 16:03:33;;;;;;;9.53;3.10;;;5.30;99.90;;;;;;5012473;28;20588;-70
2020/12/09 16:06:00;;;;;;;8.50;2.80;;;5.30;99.90;;;;;;5012664;28;20202;-70
2020/12/09 16:08:26;;;;;;;6.33;2.43;;;5.30;99.90;;;;;;5016339;28;20218;-70
2020/12/09 16:10:52;;;;;;;5.10;2.43;;;5.50;99.90;;;;;;5016526;28;20209;-69
2020/12/09 16:13:21;;;;;;;7.50;3.10;;;5.40;99.90;;;;;;5016546;28;20221;-69
2020/12/09 16:15:47;;;;;;;6.53;2.63;;;5.40;99.90;;;;;;5016224;28;20220;-70
2020/12/09 16:18:13;;;;;;;8.50;4.00;;;5.30;99.90;;;;;;5006829;28;20202;-70
2020/12/09 16:20:39;;;;;;;8.77;3.00;;;5.40;99.90;;;;;;5003004;28;20213;-70
2020/12/09 16:23:06;;;;;;;8.23;3.10;;;5.40;99.90;;;;;;5001872;28;20712;-69
2020/12/09 16:25:32;;;;;;;6.37;2.93;;;5.40;99.90;;;;;;5004837;28;20210;-69
2020/12/09 16:27:58;;;;;;;8.90;3.47;;;5.30;99.90;;;;;;5010855;28;20668;-69
2020/12/09 16:30:25;;;;;;;9.30;3.57;;;5.30;99.90;;;;;;5003342;28;20672;-69
2020/12/09 16:32:55;;;;;;;8.47;3.97;;;5.10;99.90;;;;;;5009560;28;20731;-69
2020/12/09 16:35:22;;;;;;;7.83;3.43;;;5.00;99.90;;;;;;4999568;28;20218;-69
2020/12/09 16:37:48;;;;;;;9.13;3.93;;;5.10;99.90;;;;;;5009141;28;20226;-69
2020/12/09 16:40:14;;;;;;;10.40;4.03;;;5.30;99.90;;;;;;5001105;28;20213;-70
2020/12/09 16:42:43;;;;;;;13.57;4.27;;;5.40;99.90;;;;;;5009837;28;20214;-69
2020/12/09 16:45:09;;;;;;;8.70;4.20;;;5.40;99.90;;;;;;5006716;28;20213;-69
2020/12/09 16:47:36;;;;;;;10.93;4.67;;;5.40;99.90;;;;;;5006941;28;20210;-69
2020/12/09 16:50:05;;;;;;;9.77;4.20;;;5.40;99.90;;;;;;5010194;28;20725;-69
2020/12/09 16:52:32;;;;;;;7.37;3.77;;;5.40;99.90;;;;;;5006449;28;20205;-69
2020/12/09 16:54:58;;;;;;;10.97;3.97;;;5.40;99.90;;;;;;5011412;28;20198;-69
2020/12/09 16:57:25;;;;;;;8.47;3.63;;;5.60;99.90;;;;;;5006669;28;20232;-69
2020/12/09 16:59:54;;;;;;;6.20;3.87;;;5.60;99.90;;;;;;4999545;28;20248;-69
2020/12/09 17:02:20;;;;;;;9.90;4.33;;;5.60;99.90;;;;;;5003097;28;20198;-68
2020/12/09 17:04:48;;;;;;;7.17;3.83;;;5.70;99.90;;;;;;5001076;28;20226;-68
2020/12/09 17:07:14;;;;;;;10.87;4.07;;;5.70;99.90;;;;;;4998051;28;20210;-68
2020/12/09 17:09:40;;;;;;;12.43;4.27;;;5.80;99.90;;;;;;5004530;28;20213;-68
2020/12/09 17:12:06;;;;;;;9.60;3.60;;;5.70;99.90;;;;;;5000766;28;20218;-70
2020/12/09 17:14:33;;;;;;;6.43;3.57;;;5.80;99.90;;;;;;5007776;28;20228;-68
2020/12/09 17:16:59;;;;;;;9.67;4.37;;;5.70;99.90;;;;;;5005106;28;20230;-68
2020/12/09 17:19:25;;;;;;;8.63;3.70;;;5.60;99.90;;;;;;4998429;28;20207;-68
2020/12/09 17:21:56;;;;;;;8.50;3.20;;;5.50;99.90;;;;;;5007746;28;20256;-68
2020/12/09 17:24:24;;;;;;;9.97;3.83;;;5.50;99.90;;;;;;5007505;28;20233;-68
2020/12/09 17:26:50;;;;;;;10.43;4.00;;;5.60;99.90;;;;;;5002565;28;20238;-68
2020/12/09 17:29:17;;;;;;;9.20;4.27;;;5.70;99.90;;;;;;4993978;28;20210;-68
2020/12/09 17:31:44;;;;;;;7.40;3.43;;;5.80;99.90;;;;;;4993378;28;20203;-68
2020/12/09 17:34:11;;;;;;;7.17;3.67;;;5.90;99.90;;;;;;4993508;28;20227;-70
2020/12/09 17:36:37;;;;;;;7.37;3.23;;;5.80;99.90;;;;;;4995667;28;20238;-70
2020/12/09 17:39:05;;;;;;;8.60;4.07;;;5.70;99.90;;;;;;4995430;28;20207;-70
2020/12/09 17:41:31;;;;;;;7.37;3.73;;;5.70;99.90;;;;;;4995767;28;20233;-70
2020/12/09 17:43:58;;;;;;;9.07;3.77;;;5.70;99.90;;;;;;4995250;28;20227;-70
2020/12/09 17:46:24;;;;;;;9.27;3.53;;;5.70;99.90;;;;;;4995261;28;20214;-70
2020/12/09 17:48:50;;;;;;;7.40;3.83;;;5.70;99.90;;;;;;4995219;28;20217;-70
2020/12/09 17:51:17;;;;;;;8.63;4.03;;;5.60;99.90;;;;;;4995097;28;20217;-70
2020/12/09 17:53:43;;;;;;;9.17;3.60;;;5.50;99.90;;;;;;4995255;28;20227;-70
2020/12/09 17:56:10;;;;;;;12.13;4.77;;;5.50;99.90;;;;;;4995111;28;20570;-70
2020/12/09 17:58:36;;;;;;;9.43;4.33;;;5.40;99.90;;;;;;4995250;28;20699;-68
2020/12/09 18:01:02;;;;;;;9.53;3.60;;;5.40;99.90;;;;;;4995204;28;20210;-68
2020/12/09 18:03:29;;;;;;;10.77;4.27;;;5.30;99.90;;;;;;4994709;28;20227;-68
2020/12/09 18:05:55;;;;;;;11.70;4.30;;;5.30;99.90;;;;;;4995244;28;20206;-68
2020/12/09 18:08:22;;;;;;;9.30;4.00;;;5.30;99.90;;;;;;4994835;28;20207;-67
2020/12/09 18:10:49;;;;;;;11.67;4.57;;;5.30;99.90;;;;;;4994745;28;20214;-68
2020/12/09 18:13:17;;;;;;;10.37;4.40;;;5.40;99.90;;;;;;4994802;28;20226;-68
2020/12/09 18:15:43;;;;;;;11.10;4.10;;;5.60;99.90;;;;;;4994590;28;20237;-68
2020/12/09 18:18:09;;;;;;;7.83;4.17;;;5.60;99.90;;;;;;4994328;28;20589;-68
2020/12/09 18:20:36;;;;;;;10.63;4.17;;;5.60;99.90;;;;;;4995004;28;20210;-68
2020/12/09 18:23:02;;;;;;;7.80;3.30;;;5.40;99.90;;;;;;4994715;28;20230;-68
2020/12/09 18:25:28;;;;;;;8.60;3.73;;;5.40;99.90;;;;;;4994491;28;20561;-68
2020/12/09 18:27:56;;;;;;;10.40;4.40;;;5.40;99.90;;;;;;4994331;28;20206;-68
2020/12/09 18:30:24;;;;;;;11.10;4.47;;;5.40;99.90;;;;;;4993513;28;20657;-68
2020/12/09 18:32:50;;;;;;;9.90;4.07;;;5.40;99.90;;;;;;4994402;28;20226;-70
2020/12/09 18:35:17;;;;;;;8.87;3.50;;;5.30;99.90;;;;;;4994325;28;20217;-71
2020/12/09 18:37:43;;;;;;;11.97;4.13;;;5.30;99.90;;;;;;4994563;28;20289;-70
2020/12/09 18:40:10;;;;;;;7.90;2.97;;;5.40;99.90;;;;;;4994430;28;20620;-72
2020/12/09 18:42:36;;;;;;;11.93;4.10;;;5.40;99.90;;;;;;4994515;28;20226;-70
2020/12/09 18:45:03;;;;;;;10.43;4.13;;;5.50;99.90;;;;;;4994347;28;20240;-71
2020/12/09 18:47:30;;;;;;;12.90;3.87;;;5.40;99.90;;;;;;4994118;28;20221;-68
2020/12/09 18:49:56;;;;;;;10.87;4.27;;;5.30;99.90;;;;;;4994257;28;20210;-69
2020/12/09 18:52:22;;;;;;;6.87;3.77;;;5.30;99.90;;;;;;4994130;28;20206;-70
2020/12/09 18:54:48;;;;;;;14.20;4.17;;;5.40;99.90;;;;;;4993866;28;20586;-70
2020/12/09 18:57:15;;;;;;;11.13;4.10;;;5.50;99.90;;;;;;4993739;28;20234;-71
2020/12/09 18:59:43;;;;;;;9.93;3.53;;;5.50;99.90;;;;;;4993927;28;20282;-70
2020/12/09 19:02:11;;;;;;;11.30;4.40;;;5.30;99.90;;;;;;4993321;28;20665;-70
2020/12/09 19:04:40;;;;;;;9.87;3.93;;;5.40;99.90;;;;;;4993362;28;20261;-70
2020/12/09 19:07:06;;;;;;;9.30;3.80;;;5.30;99.90;;;;;;4993734;28;20573;-70
2020/12/09 19:09:32;;;;;;;11.57;3.37;;;5.30;99.90;;;;;;4993649;28;20211;-71
2020/12/09 19:11:59;;;;;;;16.03;4.40;;;5.30;99.90;;;;;;4993713;28;20214;-68
2020/12/09 19:14:25;;;;;;;9.00;3.80;;;5.40;99.90;;;;;;4993916;28;20222;-68
2020/12/09 19:16:51;;;;;;;15.20;3.50;;;5.40;99.90;;;;;;4993448;28;20723;-69
2020/12/09 19:19:17;;;;;;;9.80;3.70;;;5.30;99.90;;;;;;4993032;28;20210;-70
2020/12/09 19:21:44;;;;;;;9.33;3.83;;;5.20;99.90;;;;;;4993523;28;20214;-71
2020/12/09 19:24:12;;;;;;;9.93;4.13;;;5.30;99.90;;;;;;4993063;28;20229;-71
2020/12/09 19:26:38;;;;;;;10.70;4.13;;;5.40;99.90;;;;;;4993381;28;20245;-72
2020/12/09 19:29:05;;;;;;;10.43;4.43;;;5.40;99.90;;;;;;4993589;28;20233;-70
2020/12/09 19:31:33;;;;;;;8.47;3.77;;;5.50;99.90;;;;;;4993323;28;20668;-70
2020/12/09 19:34:00;;;;;;;7.83;4.03;;;5.50;99.90;;;;;;4993231;28;20226;-69
2020/12/09 19:36:26;;;;;;;10.73;4.67;;;5.30;99.90;;;;;;4993207;28;20530;-69
2020/12/09 19:38:54;;;;;;;10.47;4.47;;;5.30;99.90;;;;;;4993195;28;20261;-68
2020/12/09 19:41:21;;;;;;;9.80;4.50;;;5.40;99.90;;;;;;4993509;28;20225;-71
2020/12/09 19:43:48;;;;;;;10.50;4.00;;;5.40;99.90;;;;;;4997140;28;20720;-71
2020/12/09 19:46:15;;;;;;;12.17;4.57;;;5.40;99.90;;;;;;4997254;28;20207;-69
2020/12/09 19:48:41;;;;;;;11.80;4.23;;;5.40;99.90;;;;;;4997091;28;20210;-71
2020/12/09 19:51:08;;;;;;;10.50;4.83;;;5.30;99.90;;;;;;4997303;28;20294;-71
2020/12/09 19:53:35;;;;;;;12.10;4.27;;;5.30;99.90;;;;;;4996853;28;20233;-72
2020/12/09 19:56:02;;;;;;;11.40;4.37;;;5.40;99.90;;;;;;4997191;28;20206;-72
2020/12/09 19:58:28;;;;;;;9.87;3.73;;;5.50;99.90;;;;;;4997060;28;20237;-70
2020/12/09 20:00:54;;;;;;;10.77;3.87;;;5.50;99.90;;;;;;4996899;28;20707;-70
2020/12/09 20:03:21;;;;;;;8.80;3.97;;;5.40;99.90;;;;;;4997043;28;20241;-71
2020/12/09 20:05:47;;;;;;;6.87;3.47;;;5.30;99.90;;;;;;4997172;28;20206;-68
2020/12/09 20:08:13;;;;;;;9.70;4.30;;;5.30;99.90;;;;;;4996962;28;20214;-69
2020/12/09 20:10:40;;;;;;;9.23;3.93;;;5.30;99.90;;;;;;4997040;28;20262;-68
2020/12/09 20:13:07;;;;;;;7.67;3.03;;;5.40;99.90;;;;;;4996850;28;20285;-69
2020/12/09 20:15:36;;;;;;;8.43;3.73;;;5.50;99.90;;;;;;4997165;28;20211;-69
2020/12/09 20:18:02;;;;;;;7.93;3.40;;;5.60;99.90;;;;;;4996637;28;20242;-70
2020/12/09 20:20:28;;;;;;;8.07;3.73;;;5.50;99.90;;;;;;4996659;28;20210;-69
2020/12/09 20:23:04;;;;;;;8.80;3.37;;;5.50;99.90;;;;;;4996761;28;20234;-69
2020/12/09 20:25:30;;;;;;;8.77;3.60;;;5.50;99.90;;;;;;4996942;28;20217;-69
2020/12/09 20:27:57;;;;;;;7.03;3.37;;;5.40;99.90;;;;;;4996921;28;20748;-69
2020/12/09 20:30:24;;;;;;;15.13;3.60;;;5.40;99.90;;;;;;4996458;28;20661;-68
2020/12/09 20:32:50;;;;;;;8.30;3.27;;;5.40;99.90;;;;;;4996917;28;20227;-69
2020/12/09 20:35:16;;;;;;;8.40;3.47;;;5.40;99.90;;;;;;4996531;28;20214;-69
2020/12/09 20:37:44;;;;;;;6.67;3.00;;;5.50;99.90;;;;;;4996229;28;20234;-70
2020/12/09 20:40:11;;;;;;;8.53;3.83;;;5.60;99.90;;;;;;4996635;28;20213;-69
2020/12/09 20:42:37;;;;;;;10.13;3.90;;;5.70;99.90;;;;;;4996423;28;20217;-69
2020/12/09 20:45:09;;;;;;;11.53;3.50;;;5.60;99.90;;;;;;4996527;28;20218;-69
2020/12/09 20:47:36;;;;;;;7.27;2.93;;;5.50;99.90;;;;;;4996116;28;20207;-69
2020/12/09 20:50:03;;;;;;;5.60;2.83;;;5.40;99.90;;;;;;4995996;28;20218;-70
2020/12/09 20:52:33;;;;;;;7.40;3.17;;;5.40;99.90;;;;;;4995740;28;20209;-70
2020/12/09 20:55:00;;;;;;;7.87;3.30;;;5.40;99.90;;;;;;4995330;28;20585;-69
2020/12/09 20:57:26;;;;;;;9.90;3.57;;;5.30;99.90;;;;;;4995943;28;20230;-70
2020/12/09 20:59:52;;;;;;;8.03;2.97;;;5.30;99.90;;;;;;4995884;28;20210;-69
2020/12/09 21:02:18;;;;;;;7.83;3.13;;;5.40;99.90;;;;;;4996067;28;20210;-69
2020/12/09 21:04:46;;;;;;;11.97;3.50;;;5.40;99.90;;;;;;4996161;28;20233;-69
2020/12/09 21:07:12;;;;;;;6.90;3.43;;;5.50;99.90;;;;;;4996021;28;20624;-69